Terminal Aerodrome Forecast
Issued by NWS

Home | Current Version | Previous Version | Text Only | Print | Product List | Glossary On
Versions: 1 2 3 4 5 6 7 8 9 10 11 12 13
000
FTUS45 KABQ 192300
TAFSAF
TAF
KSAF 192332Z 2000/2024 16010KT P6SM -RA SCT025 OVC040
     FM200400 29008KT P6SM VCTS SCT025 OVC040CB
     FM200800 31007KT P6SM VCSH SCT025 OVC040
     FM201400 36006KT P6SM SCT040 BKN060
     FM201900 32012G21KT P6SM VCSH SCT060 BKN080=

USA.gov is the U.S. government's official web portal to all federal, state and local government web resources and services.